Guenther Schulte — VRGK8 — position and weather

sailwx.info

Track history (hours):
 
Tides and Currents Weather Stations Pressure Air Temp Water Temp Dewpoint Dewpoint Depression Visibility Wind Speed Wind Dir Waves Ship Positions

Guenther Schulte

Last reported at 2017-Mar-26 08:32 UTC. Time now 2017-Mar-30 12:48 UTC.
Position S 37°31' E 176°15'.

Length 231 m; draft 10 m.

Type: Ship (hazmat cat C). MMSI: 477728800.

Date/timePositionNaut miles runAvg speedWind from/ knotsBaromVisibWave heightAir tempDewpointWater temp
2017-Mar-26 08:32S 37°31' E 176°15'9 9.6
2017-Mar-26 07:33S 37°40' E 176°11'0 0.0
2017-Mar-26 06:33S 37°40' E 176°11'0 0.0
2017-Mar-26 04:24S 37°40' E 176°11'0 0.0
2017-Mar-26 03:33S 37°40' E 176°11'0 0.0
2017-Mar-26 02:33S 37°40' E 176°11'0 0.0
2017-Mar-26 01:27S 37°40' E 176°11'0 0.0
2017-Mar-26 00:33S 37°40' E 176°11'0 0.0
2017-Mar-25 23:33S 37°40' E 176°11'0 0.0
2017-Mar-25 22:33S 37°40' E 176°11'0 0.0
2017-Mar-25 21:33S 37°40' E 176°11'0 0.0
2017-Mar-25 20:33S 37°40' E 176°11'0 0.0
2017-Mar-25 19:33S 37°40' E 176°11'0 0.0
2017-Mar-25 18:33S 37°40' E 176°11'0 0.0
2017-Mar-25 17:33S 37°40' E 176°11'0 0.0
2017-Mar-25 16:33S 37°40' E 176°11'0 0.0
2017-Mar-25 15:33S 37°40' E 176°11'0 0.0
2017-Mar-25 14:33S 37°40' E 176°11'0 0.0
2017-Mar-25 13:33S 37°40' E 176°11'0 0.0
2017-Mar-25 12:33S 37°40' E 176°11'0 0.0
2017-Mar-25 11:33S 37°40' E 176°11'0 0.0
2017-Mar-25 10:34S 37°40' E 176°11'6 6.3
2017-Mar-25 09:33S 37°34' E 176°13'8415.3
2017-Mar-25 04:05S 36°12' E 175°53'1317.2
2017-Mar-25 03:21S 36°01' E 175°46'1717.1
2017-Mar-25 02:20S 35°49' E 175°31'  
2017-Mar-19 15:23S 38°11' E 144°55'1618.4
2017-Mar-19 14:32S 37°56' E 144°56'7 7.2
2017-Mar-19 13:34S 37°49' E 144°55'0 0.0
2017-Mar-18 06:05S 37°49' E 144°55'1 2.5
2017-Mar-18 05:29S 37°50' E 144°54'1010.8
2017-Mar-18 04:33S 38°00' E 144°55'  
Track history (hours):
 
Tides and Currents Weather Stations Pressure Air Temp Water Temp Dewpoint Dewpoint Depression Visibility Wind Speed Wind Dir Waves Ship Positions

Guenther Schulte

Last reported at 2017-Mar-26 08:32 UTC. Time now 2017-Mar-30 12:48 UTC.
Position S 37°31' E 176°15'.

Length 231 m; draft 10 m.

Type: Ship (hazmat cat C). MMSI: 477728800.

Date/timePositionNaut miles runAvg speedWind from/ knotsBaromVisibWave heightAir tempDewpointWater temp
2017-Mar-26 08:32S 37°31' E 176°15'9 9.6
2017-Mar-26 07:33S 37°40' E 176°11'0 0.0
2017-Mar-26 06:33S 37°40' E 176°11'0 0.0
2017-Mar-26 04:24S 37°40' E 176°11'0 0.0
2017-Mar-26 03:33S 37°40' E 176°11'0 0.0
2017-Mar-26 02:33S 37°40' E 176°11'0 0.0
2017-Mar-26 01:27S 37°40' E 176°11'0 0.0
2017-Mar-26 00:33S 37°40' E 176°11'0 0.0
2017-Mar-25 23:33S 37°40' E 176°11'0 0.0
2017-Mar-25 22:33S 37°40' E 176°11'0 0.0
2017-Mar-25 21:33S 37°40' E 176°11'0 0.0
2017-Mar-25 20:33S 37°40' E 176°11'0 0.0
2017-Mar-25 19:33S 37°40' E 176°11'0 0.0
2017-Mar-25 18:33S 37°40' E 176°11'0 0.0
2017-Mar-25 17:33S 37°40' E 176°11'0 0.0
2017-Mar-25 16:33S 37°40' E 176°11'0 0.0
2017-Mar-25 15:33S 37°40' E 176°11'0 0.0
2017-Mar-25 14:33S 37°40' E 176°11'0 0.0
2017-Mar-25 13:33S 37°40' E 176°11'0 0.0
2017-Mar-25 12:33S 37°40' E 176°11'0 0.0
2017-Mar-25 11:33S 37°40' E 176°11'0 0.0
2017-Mar-25 10:34S 37°40' E 176°11'6 6.3
2017-Mar-25 09:33S 37°34' E 176°13'8415.3
2017-Mar-25 04:05S 36°12' E 175°53'1317.2
2017-Mar-25 03:21S 36°01' E 175°46'1717.1
2017-Mar-25 02:20S 35°49' E 175°31'  
2017-Mar-19 15:23S 38°11' E 144°55'1618.4
2017-Mar-19 14:32S 37°56' E 144°56'7 7.2
2017-Mar-19 13:34S 37°49' E 144°55'0 0.0
2017-Mar-18 06:05S 37°49' E 144°55'1 2.5
2017-Mar-18 05:29S 37°50' E 144°54'1010.8
2017-Mar-18 04:33S 38°00' E 144°55'  

Dump ship's entire track history